Time;durP1;ratioP1;P1;durP2;ratioP2;P2;SDS_P1;SDS_P2;PMS_P1;PMS_P2;Temp;Humidity;BMP_temperature;BMP_pressure;BME280_temperature;BME280_humidity;BME280_pressure;Samples;Min_cycle;Max_cycle;Signal;HPM_P1;HPM_P2
2024/02/06 00:01:00;;;;;;;9.90;8.73;;;;;;;9.06;94.51;100096.31;5030724;28;20264;-77
2024/02/06 00:03:27;;;;;;;9.43;8.30;;;;;;;8.89;94.93;100112.22;5030177;28;20206;-77
2024/02/06 00:05:53;;;;;;;9.80;8.80;;;;;;;9.02;95.33;100104.19;5030979;28;20323;-77
2024/02/06 00:08:19;;;;;;;10.37;9.43;;;;;;;9.07;95.74;100095.41;5030752;28;20230;-77
2024/02/06 00:10:46;;;;;;;10.47;9.47;;;;;;;8.78;97.08;100082.03;5033439;28;20241;-77
2024/02/06 00:13:13;;;;;;;14.73;8.20;;;;;;;8.98;97.00;100053.94;5034272;28;20264;-77
2024/02/06 00:15:39;;;;;;;8.83;8.03;;;;;;;9.01;95.83;100064.28;5034272;28;20697;-76
2024/02/06 00:18:07;;;;;;;9.63;8.63;;;;;;;8.90;96.62;100059.28;5033998;28;20704;-77
2024/02/06 00:20:33;;;;;;;10.27;8.40;;;;;;;9.08;95.69;100060.69;5034007;28;20271;-77
2024/02/06 00:22:59;;;;;;;8.00;7.33;;;;;;;8.83;97.28;100051.59;5034113;28;20751;-77
2024/02/06 00:25:28;;;;;;;7.13;6.47;;;;;;;9.10;95.99;100047.63;5038796;28;20203;-77
2024/02/06 00:27:55;;;;;;;7.97;6.07;;;;;;;8.95;96.87;100043.56;5030420;28;20206;-77
2024/02/06 00:30:22;;;;;;;5.67;5.20;;;;;;;9.00;96.53;100046.94;5034337;28;20203;-77
2024/02/06 00:32:49;;;;;;;6.87;5.23;;;;;;;9.11;95.60;100049.34;5034043;28;20273;-77
2024/02/06 00:35:16;;;;;;;5.67;5.17;;;;;;;9.13;94.91;100068.41;5033623;28;20217;-76
2024/02/06 00:37:44;;;;;;;4.77;4.37;;;;;;;8.98;96.07;100053.94;5034194;28;20237;-77
2024/02/06 00:40:11;;;;;;;5.60;4.10;;;;;;;8.93;95.85;100056.59;5034016;28;20234;-77
2024/02/06 00:42:37;;;;;;;4.50;4.17;;;;;;;8.85;96.07;100049.84;5034207;28;20217;-76
2024/02/06 00:45:04;;;;;;;4.67;4.10;;;;;;;8.94;97.19;100024.50;5033394;28;20673;-77
2024/02/06 00:47:32;;;;;;;5.30;4.80;;;;;;;9.06;96.56;100031.22;5033921;28;20226;-77
2024/02/06 00:49:58;;;;;;;4.00;3.70;;;;;;;9.12;95.63;100045.88;5033396;28;20214;-77
2024/02/06 00:52:26;;;;;;;5.07;2.97;;;;;;;9.13;95.59;100047.56;5034025;28;20221;-77
2024/02/06 00:54:52;;;;;;;3.47;3.17;;;;;;;9.18;95.44;100039.66;5033898;28;20233;-77
2024/02/06 00:57:19;;;;;;;3.30;3.10;;;;;;;9.22;95.29;100051.75;5033598;28;20265;-77
2024/02/06 00:59:45;;;;;;;3.50;3.20;;;;;;;9.21;94.92;100043.06;5033943;28;20262;-77
2024/02/06 01:02:11;;;;;;;4.00;3.70;;;;;;;9.11;95.05;100047.59;5033843;28;20206;-77
2024/02/06 01:04:38;;;;;;;3.83;3.53;;;;;;;9.16;94.90;100055.34;5033363;28;20248;-76
2024/02/06 01:07:04;;;;;;;3.90;3.60;;;;;;;8.90;96.55;100042.78;5041847;28;20229;-77
2024/02/06 01:09:32;;;;;;;4.70;4.23;;;;;;;9.05;96.73;100036.44;5026186;28;20259;-77
2024/02/06 01:11:58;;;;;;;4.47;4.07;;;;;;;8.77;98.15;100010.94;5041596;28;20209;-77
2024/02/06 01:14:25;;;;;;;4.50;4.20;;;;;;;8.98;99.08;99987.97;5033520;28;20261;-77
2024/02/06 01:16:51;;;;;;;5.60;4.90;;;;;;;8.75;100.00;99969.31;5033399;28;20679;-77
2024/02/06 01:19:17;;;;;;;5.30;4.90;;;;;;;8.91;100.00;99956.00;5033342;28;20258;-77
2024/02/06 01:21:44;;;;;;;5.53;5.10;;;;;;;9.00;100.00;99960.16;5033837;28;20565;-77
2024/02/06 01:24:10;;;;;;;5.87;5.27;;;;;;;8.90;100.00;99946.47;5033888;28;20283;-77
2024/02/06 01:26:37;;;;;;;5.70;5.23;;;;;;;8.85;100.00;99937.91;5033700;28;20331;-77
2024/02/06 01:29:04;;;;;;;6.33;5.73;;;;;;;8.66;100.00;99920.09;5032928;28;20210;-76
2024/02/06 01:31:30;;;;;;;6.50;6.00;;;;;;;8.77;100.00;99892.97;5032943;28;20283;-77
2024/02/06 01:33:56;;;;;;;6.57;5.93;;;;;;;8.65;100.00;99888.88;5032558;28;20268;-77
2024/02/06 01:36:23;;;;;;;6.90;6.30;;;;;;;8.46;100.00;99839.84;5033009;28;20724;-77
2024/02/06 01:38:49;;;;;;;8.17;7.30;;;;;;;8.62;100.00;99842.09;5033175;28;20280;-77
2024/02/06 01:41:15;;;;;;;7.60;7.00;;;;;;;8.38;100.00;99841.66;5033699;28;20268;-76
2024/02/06 01:43:43;;;;;;;8.93;8.07;;;;;;;8.54;100.00;99840.53;5034196;28;20669;-76
2024/02/06 01:46:11;;;;;;;8.60;7.83;;;;;;;8.79;100.00;99849.56;5033855;28;20256;-77
2024/02/06 01:48:38;;;;;;;9.33;8.47;;;;;;;8.69;100.00;99862.75;5033990;28;20697;-77
2024/02/06 01:51:06;;;;;;;8.90;8.10;;;;;;;8.80;100.00;99872.09;5033157;28;20276;-76
2024/02/06 01:53:33;;;;;;;9.03;8.13;;;;;;;8.87;100.00;99886.69;5025269;28;20252;-76
2024/02/06 01:56:00;;;;;;;7.97;7.07;;;;;;;8.97;100.00;99902.97;5033382;28;20316;-77
2024/02/06 01:58:26;;;;;;;8.40;7.67;;;;;;;8.78;100.00;99921.59;5012784;28;20222;-76
2024/02/06 02:00:54;;;;;;;8.90;8.20;;;;;;;8.83;100.00;99909.31;5013369;28;20207;-77
2024/02/06 02:03:21;;;;;;;8.97;8.27;;;;;;;8.82;100.00;99892.00;5012525;28;20229;-77
2024/02/06 02:05:47;;;;;;;9.27;8.40;;;;;;;8.87;100.00;99897.94;5013172;28;20227;-77
2024/02/06 02:08:14;;;;;;;8.10;7.40;;;;;;;8.81;100.00;99912.84;5012937;28;20261;-77
2024/02/06 02:10:40;;;;;;;9.00;7.87;;;;;;;8.84;100.00;99924.06;5014272;28;20232;-77
2024/02/06 02:13:07;;;;;;;9.17;8.30;;;;;;;8.77;100.00;99913.81;5012265;28;20569;-76
2024/02/06 02:15:33;;;;;;;9.90;8.90;;;;;;;8.95;100.00;99922.06;5022483;28;20246;-77
2024/02/06 02:18:01;;;;;;;8.23;7.50;;;;;;;8.91;99.92;99919.56;5027862;28;20233;-77
2024/02/06 02:20:27;;;;;;;8.90;8.20;;;;;;;8.91;99.73;99935.19;5031892;28;20265;-76
2024/02/06 02:22:55;;;;;;;7.73;7.13;;;;;;;8.92;98.61;99940.38;5032419;28;20256;-76
2024/02/06 02:25:23;;;;;;;8.80;7.87;;;;;;;9.12;98.21;99954.72;5031710;28;20238;-76
2024/02/06 02:27:50;;;;;;;8.63;7.93;;;;;;;9.13;97.60;99959.88;5032168;28;20271;-77
2024/02/06 02:30:18;;;;;;;9.37;8.53;;;;;;;9.10;96.96;99979.94;5031981;28;20202;-76
2024/02/06 02:32:45;;;;;;;9.10;8.30;;;;;;;8.99;97.16;99989.72;5036673;28;20227;-76
2024/02/06 02:35:12;;;;;;;9.20;8.40;;;;;;;9.22;96.73;99995.31;5017773;28;20205;-76
2024/02/06 02:37:39;;;;;;;9.73;8.70;;;;;;;9.11;96.90;99984.25;5012308;28;20229;-77
2024/02/06 02:40:08;;;;;;;10.03;9.10;;;;;;;9.14;96.32;99994.63;5012137;28;20253;-77
2024/02/06 02:42:34;;;;;;;9.30;8.60;;;;;;;9.08;96.12;99994.75;5027535;28;20637;-77
2024/02/06 02:45:01;;;;;;;9.00;8.30;;;;;;;9.06;95.69;100001.72;5030432;28;20226;-76
2024/02/06 02:47:27;;;;;;;10.10;9.10;;;;;;;9.23;95.66;99983.13;5031350;28;20292;-77
2024/02/06 02:49:53;;;;;;;9.97;9.17;;;;;;;9.24;95.50;99987.47;5031389;28;20202;-77
2024/02/06 02:52:19;;;;;;;9.83;8.90;;;;;;;9.11;95.56;99999.88;5031582;28;20202;-76
2024/02/06 02:54:46;;;;;;;9.60;8.80;;;;;;;9.20;95.15;99980.63;5031408;28;20233;-77
2024/02/06 02:57:14;;;;;;;10.00;9.00;;;;;;;9.22;94.47;99999.66;5031970;28;20226;-77
2024/02/06 02:59:40;;;;;;;9.17;8.47;;;;;;;9.25;94.60;99997.00;5031374;28;20252;-77
2024/02/06 03:02:06;;;;;;;11.47;9.03;;;;;;;9.24;95.33;99977.06;5031492;28;20722;-77
2024/02/06 03:04:33;;;;;;;9.17;8.10;;;;;;;9.27;95.36;99975.22;5031167;28;20234;-77
2024/02/06 03:06:59;;;;;;;8.63;7.93;;;;;;;9.27;95.00;99976.97;5031805;28;20221;-76
2024/02/06 03:09:27;;;;;;;8.50;7.80;;;;;;;9.18;94.98;99975.44;5029294;28;20211;-76
2024/02/06 03:11:53;;;;;;;7.90;7.10;;;;;;;9.33;94.26;99985.50;5011967;28;20741;-76
2024/02/06 03:14:21;;;;;;;7.90;7.30;;;;;;;9.37;95.10;99969.81;5015099;28;20206;-76
2024/02/06 03:16:48;;;;;;;7.80;7.10;;;;;;;9.36;94.48;99976.78;5022873;28;20230;-77
2024/02/06 03:19:14;;;;;;;7.60;7.00;;;;;;;9.16;95.28;99974.59;5030791;28;20708;-77
2024/02/06 03:21:40;;;;;;;8.07;7.27;;;;;;;9.13;95.15;99959.88;5031653;28;20307;-77
2024/02/06 03:24:07;;;;;;;7.17;6.57;;;;;;;9.30;94.81;99948.28;5031592;28;20202;-77
2024/02/06 03:26:34;;;;;;;8.97;8.03;;;;;;;9.24;95.08;99949.25;5031775;28;20261;-77
2024/02/06 03:29:01;;;;;;;8.20;7.40;;;;;;;9.37;94.89;99947.22;5031235;28;20199;-77
2024/02/06 03:31:28;;;;;;;7.23;6.63;;;;;;;9.37;94.19;99954.19;5031185;28;20204;-77
2024/02/06 03:33:55;;;;;;;8.03;6.50;;;;;;;9.48;93.87;99958.28;5031172;28;20229;-77
2024/02/06 03:36:21;;;;;;;7.30;6.60;;;;;;;9.45;94.00;99970.50;5031612;28;20249;-77
2024/02/06 03:38:47;;;;;;;7.27;6.63;;;;;;;9.46;93.72;99967.88;5031637;28;20230;-76
2024/02/06 03:41:14;;;;;;;6.53;5.93;;;;;;;9.20;94.67;99955.44;5030989;28;20257;-76
2024/02/06 03:43:40;;;;;;;7.07;6.57;;;;;;;9.20;95.45;99947.63;5030832;28;20619;-76
2024/02/06 03:46:06;;;;;;;7.40;6.80;;;;;;;9.37;95.85;99915.97;5027279;28;20227;-76
2024/02/06 03:48:35;;;;;;;7.67;6.93;;;;;;;9.49;95.02;99913.13;5033755;28;20689;-77
2024/02/06 03:51:01;;;;;;;7.17;6.57;;;;;;;9.31;95.65;99934.34;5035173;28;20201;-77
2024/02/06 03:53:27;;;;;;;6.13;5.73;;;;;;;9.26;96.11;99915.38;5035376;28;20248;-78
2024/02/06 03:55:54;;;;;;;6.57;5.97;;;;;;;9.07;96.44;99902.75;5034953;28;20221;-77
2024/02/06 03:58:20;;;;;;;6.73;6.20;;;;;;;9.28;96.50;99883.19;5034889;28;20668;-77
2024/02/06 04:00:49;;;;;;;7.47;6.77;;;;;;;9.14;96.76;99886.09;5035167;28;20257;-77
2024/02/06 04:03:16;;;;;;;7.00;6.50;;;;;;;9.22;96.90;99882.50;5034626;28;20578;-77
2024/02/06 04:05:44;;;;;;;6.93;6.33;;;;;;;9.21;97.00;99878.16;5034721;28;20206;-77
2024/02/06 04:08:10;;;;;;;6.73;6.13;;;;;;;9.22;96.72;99872.06;5035422;28;20274;-76
2024/02/06 04:10:36;;;;;;;9.17;6.60;;;;;;;9.29;96.36;99879.69;5035154;28;20578;-77
2024/02/06 04:13:03;;;;;;;7.17;6.47;;;;;;;9.40;95.83;99878.59;5035815;28;20687;-77
2024/02/06 04:15:29;;;;;;;6.20;5.60;;;;;;;9.24;95.98;99891.97;5035663;28;20293;-77
2024/02/06 04:17:56;;;;;;;5.53;5.03;;;;;;;9.31;95.46;99905.69;5034636;28;20235;-77
2024/02/06 04:20:22;;;;;;;5.87;5.37;;;;;;;9.21;96.00;99897.22;5033581;28;20276;-76
2024/02/06 04:22:50;;;;;;;6.33;5.77;;;;;;;9.51;95.11;99893.09;5034781;28;20558;-77
2024/02/06 04:25:16;;;;;;;5.60;5.10;;;;;;;9.30;96.13;99899.63;5034686;28;20242;-77
2024/02/06 04:27:43;;;;;;;7.37;6.17;;;;;;;9.34;96.19;99883.06;5034248;28;20808;-77
2024/02/06 04:30:13;;;;;;;5.60;5.10;;;;;;;9.46;95.78;99891.47;5034690;28;20695;-77
2024/02/06 04:32:40;;;;;;;6.40;5.70;;;;;;;9.49;95.31;99892.28;5034104;28;20211;-77
2024/02/06 04:35:07;;;;;;;5.70;5.10;;;;;;;9.40;95.50;99899.44;5034257;28;20229;-77
2024/02/06 04:37:34;;;;;;;4.90;4.50;;;;;;;9.47;95.50;99887.97;5034265;28;20226;-77
2024/02/06 04:40:01;;;;;;;4.80;4.40;;;;;;;9.49;95.11;99889.66;5034333;28;20261;-77
2024/02/06 04:42:28;;;;;;;4.73;4.33;;;;;;;9.65;94.28;99895.38;5033777;28;20206;-77
2024/02/06 04:44:54;;;;;;;6.23;4.73;;;;;;;9.48;94.85;99915.75;5034794;28;20693;-77
2024/02/06 04:47:20;;;;;;;4.03;3.73;;;;;;;9.50;94.91;99896.56;5034304;28;20280;-77
2024/02/06 04:49:46;;;;;;;4.23;3.93;;;;;;;9.44;94.51;99907.16;5033963;28;20198;-77
2024/02/06 04:52:13;;;;;;;5.00;4.50;;;;;;;9.37;95.37;99900.34;5034619;28;20242;-77
2024/02/06 04:54:39;;;;;;;4.67;4.27;;;;;;;9.37;95.30;99886.47;5033925;28;20210;-77
2024/02/06 04:57:07;;;;;;;4.67;4.17;;;;;;;9.44;96.30;99867.22;5033415;28;20280;-77
2024/02/06 04:59:33;;;;;;;5.33;4.80;;;;;;;9.46;96.55;99853.25;5034073;28;20781;-77
2024/02/06 05:01:59;;;;;;;4.93;4.50;;;;;;;9.45;96.60;99848.91;5033627;28;20206;-77
2024/02/06 05:04:26;;;;;;;4.93;4.60;;;;;;;9.35;96.72;99850.03;5033526;28;20234;-76
2024/02/06 05:06:52;;;;;;;4.90;4.50;;;;;;;9.51;95.78;99864.44;5034131;28;20766;-77
2024/02/06 05:09:18;;;;;;;6.27;4.80;;;;;;;9.43;95.27;99879.38;5033946;28;20244;-77
2024/02/06 05:11:45;;;;;;;5.33;4.93;;;;;;;9.49;95.72;99875.75;5033638;28;20206;-77
2024/02/06 05:14:12;;;;;;;5.10;4.60;;;;;;;9.61;95.30;99865.03;5034657;28;20680;-77
2024/02/06 05:16:39;;;;;;;4.93;4.53;;;;;;;9.40;95.38;99866.44;5032001;28;20324;-76
2024/02/06 05:19:05;;;;;;;8.80;5.83;;;;;;;9.34;95.43;99851.78;5032302;28;20214;-76
2024/02/06 05:21:31;;;;;;;5.33;4.40;;;;;;;9.51;94.97;99873.97;5024875;28;20236;-77
2024/02/06 05:23:57;;;;;;;5.40;4.93;;;;;;;9.50;95.31;99870.53;5033252;28;20206;-77
2024/02/06 05:26:24;;;;;;;5.30;4.87;;;;;;;9.34;96.14;99846.59;5032841;28;20276;-76
2024/02/06 05:28:50;;;;;;;7.27;5.30;;;;;;;9.52;95.28;99847.03;5034444;28;20202;-76
2024/02/06 05:31:18;;;;;;;5.43;4.70;;;;;;;9.61;94.46;99858.97;5032659;28;20202;-77
2024/02/06 05:33:44;;;;;;;4.70;4.30;;;;;;;9.49;94.12;99870.56;5024177;28;20202;-76
2024/02/06 05:36:10;;;;;;;5.40;4.90;;;;;;;9.65;94.19;99871.91;5033153;28;20252;-77
2024/02/06 05:38:36;;;;;;;5.63;5.13;;;;;;;9.49;95.40;99870.56;5033235;28;20292;-76
2024/02/06 05:41:03;;;;;;;5.70;5.17;;;;;;;9.54;95.03;99848.72;5032743;28;20276;-76
2024/02/06 05:43:29;;;;;;;6.03;5.33;;;;;;;9.56;94.98;99858.25;5032901;28;20730;-76
2024/02/06 05:45:56;;;;;;;5.97;5.43;;;;;;;9.63;94.56;99854.59;5033171;28;20260;-77
2024/02/06 05:48:24;;;;;;;6.63;5.10;;;;;;;9.50;94.27;99867.06;5032417;28;20202;-76
2024/02/06 05:50:51;;;;;;;7.30;5.27;;;;;;;9.58;94.53;99859.91;5032836;28;20722;-77
2024/02/06 05:53:17;;;;;;;6.57;5.13;;;;;;;9.51;94.87;99841.00;5032904;28;20202;-76
2024/02/06 05:55:44;;;;;;;5.90;5.50;;;;;;;9.58;94.52;99846.91;5032584;28;20610;-77
2024/02/06 05:58:11;;;;;;;5.43;4.93;;;;;;;9.53;93.87;99866.97;5032611;28;20236;-77
2024/02/06 06:00:37;;;;;;;7.57;4.97;;;;;;;9.32;94.69;99855.34;5032567;28;20257;-77
2024/02/06 06:03:04;;;;;;;5.47;4.93;;;;;;;9.40;94.25;99852.56;5032217;28;20233;-77
2024/02/06 06:05:33;;;;;;;5.20;4.70;;;;;;;9.58;93.95;99848.66;5031777;28;20293;-77
2024/02/06 06:07:59;;;;;;;5.77;5.20;;;;;;;9.46;93.30;99868.88;5032547;28;20213;-79
2024/02/06 06:10:26;;;;;;;5.90;5.23;;;;;;;9.52;93.16;99870.50;5036404;28;20669;-83
2024/02/06 06:12:52;;;;;;;8.90;5.00;;;;;;;9.62;92.38;99890.22;5025728;28;20225;-77
2024/02/06 06:15:18;;;;;;;6.90;4.93;;;;;;;9.66;91.59;99891.00;5032391;28;20268;-77
2024/02/06 06:17:45;;;;;;;5.67;4.47;;;;;;;9.57;91.43;99902.50;5031902;28;20292;-76
2024/02/06 06:20:11;;;;;;;6.13;4.73;;;;;;;9.72;91.11;99929.94;5031741;28;20307;-77
2024/02/06 06:22:39;;;;;;;4.30;4.00;;;;;;;9.63;91.00;99931.03;5035227;28;20211;-80
2024/02/06 06:25:06;;;;;;;5.60;5.10;;;;;;;9.56;90.89;99936.41;5035771;28;20202;-81
2024/02/06 06:27:32;;;;;;;6.07;5.00;;;;;;;9.64;91.62;99921.47;5035414;28;20226;-81
2024/02/06 06:29:58;;;;;;;5.23;4.73;;;;;;;9.68;91.29;99916.13;5020671;28;20257;-81
2024/02/06 06:32:25;;;;;;;5.23;4.43;;;;;;;9.51;91.31;99931.28;5046197;28;20206;-80
2024/02/06 06:34:51;;;;;;;6.77;5.70;;;;;;;9.76;90.92;99915.94;5037542;28;20194;-81
2024/02/06 06:37:18;;;;;;;8.00;5.27;;;;;;;9.51;92.46;99905.25;5036031;28;20587;-82
2024/02/06 06:39:48;;;;;;;7.77;5.43;;;;;;;9.45;93.47;99874.97;5035071;28;20704;-81
2024/02/06 06:42:15;;;;;;;4.93;4.63;;;;;;;9.53;93.91;99860.03;5037369;28;20202;-83
2024/02/06 06:44:42;;;;;;;8.40;4.80;;;;;;;9.65;93.38;99852.81;5026968;28;20235;-77
2024/02/06 06:47:08;;;;;;;4.70;4.17;;;;;;;9.73;92.84;99851.72;5031829;28;20225;-77
2024/02/06 06:49:35;;;;;;;5.23;4.73;;;;;;;9.57;93.30;99863.41;5032105;28;20202;-77
2024/02/06 06:52:01;;;;;;;4.97;4.67;;;;;;;9.74;93.37;99857.78;5036790;28;20233;-78
2024/02/06 06:54:27;;;;;;;6.40;5.23;;;;;;;9.72;93.38;99863.03;5015043;28;20199;-77
2024/02/06 06:56:55;;;;;;;6.00;5.00;;;;;;;9.78;93.65;99835.97;5015043;28;20222;-80
2024/02/06 06:59:21;;;;;;;5.30;4.80;;;;;;;9.79;93.73;99829.88;5014144;28;20812;-79
2024/02/06 07:01:48;;;;;;;4.70;4.30;;;;;;;9.74;93.72;99832.59;5012513;28;20295;-77
2024/02/06 07:04:14;;;;;;;5.70;5.20;;;;;;;9.77;93.25;99843.81;5010994;28;20257;-77
2024/02/06 07:06:40;;;;;;;5.07;4.67;;;;;;;9.88;92.98;99847.88;5012600;28;20654;-77
2024/02/06 07:09:07;;;;;;;4.73;4.23;;;;;;;9.87;93.69;99835.75;5011643;28;20202;-77
2024/02/06 07:11:33;;;;;;;4.40;3.80;;;;;;;9.76;93.61;99829.09;5012350;28;20215;-77
2024/02/06 07:14:01;;;;;;;4.57;4.17;;;;;;;9.51;94.64;99822.75;5026830;28;20210;-76
2024/02/06 07:16:27;;;;;;;4.77;3.63;;;;;;;9.66;94.38;99816.28;5022798;28;20246;-77
2024/02/06 07:18:53;;;;;;;4.50;4.00;;;;;;;9.86;93.62;99817.53;5037220;28;20236;-77
2024/02/06 07:21:20;;;;;;;4.47;4.00;;;;;;;9.83;93.81;99813.25;5051827;28;20221;-78
2024/02/06 07:23:46;;;;;;;7.17;4.27;;;;;;;9.58;95.12;99810.41;5023046;28;20751;-77
2024/02/06 07:26:12;;;;;;;4.60;4.20;;;;;;;9.60;94.93;99792.16;5031417;28;20222;-76
2024/02/06 07:28:39;;;;;;;4.23;3.83;;;;;;;9.78;94.65;99785.59;5031401;28;20675;-77
2024/02/06 07:31:06;;;;;;;4.73;4.13;;;;;;;9.83;94.31;99792.41;5031280;28;20202;-77
2024/02/06 07:33:33;;;;;;;4.20;3.80;;;;;;;9.87;93.85;99799.25;5028029;28;20593;-79
2024/02/06 07:35:59;;;;;;;3.37;3.07;;;;;;;9.78;93.10;99807.31;5032188;28;20271;-76
2024/02/06 07:38:25;;;;;;;4.70;4.17;;;;;;;9.78;93.58;99815.13;5039661;28;20205;-77
2024/02/06 07:40:52;;;;;;;4.13;3.80;;;;;;;9.91;93.85;99800.00;5015677;28;20230;-78
2024/02/06 07:43:18;;;;;;;3.93;3.30;;;;;;;9.98;92.86;99813.75;5019625;28;20202;-78
2024/02/06 07:45:44;;;;;;;3.43;3.10;;;;;;;9.99;92.58;99833.69;5029908;28;20272;-77
2024/02/06 07:48:12;;;;;;;3.67;3.37;;;;;;;9.93;92.46;99830.38;5031428;28;20238;-78
2024/02/06 07:50:38;;;;;;;3.47;3.17;;;;;;;9.90;92.06;99835.66;5032784;28;20199;-78
2024/02/06 07:53:05;;;;;;;3.10;2.77;;;;;;;9.95;92.20;99835.56;5034221;28;20229;-78
2024/02/06 07:55:31;;;;;;;3.33;2.87;;;;;;;9.78;92.00;99824.69;5033900;28;20202;-78
2024/02/06 07:57:57;;;;;;;3.67;3.13;;;;;;;10.00;91.88;99840.63;5034932;28;20209;-82
2024/02/06 08:00:30;;;;;;;3.43;3.20;;;;;;;10.04;91.95;99824.00;5035371;28;20268;-85
2024/02/06 08:02:56;;;;;;;3.50;2.70;;;;;;;9.96;92.74;99818.16;5036103;28;20202;-83
2024/02/06 08:05:24;;;;;;;4.10;3.03;;;;;;;9.86;92.47;99825.34;5037021;28;20225;-81
2024/02/06 08:07:51;;;;;;;6.93;2.80;;;;;;;10.01;93.15;99798.88;5036672;28;20734;-82
2024/02/06 08:10:18;;;;;;;3.47;2.83;;;;;;;10.07;92.34;99808.31;5036905;28;20198;-83
2024/02/06 08:12:44;;;;;;;3.20;2.87;;;;;;;10.22;92.16;99814.84;5036032;28;20281;-78
2024/02/06 08:15:10;;;;;;;4.67;3.10;;;;;;;10.05;93.53;99784.88;5045171;28;20195;-81
2024/02/06 08:17:40;;;;;;;3.43;2.90;;;;;;;10.16;92.74;99792.38;5050586;28;20229;-82
2024/02/06 08:23:08;;;;;;;3.70;2.63;;;;;;;10.16;92.92;99770.66;5047356;28;20235;-78
2024/02/06 08:25:35;;;;;;;3.73;2.63;;;;;;;10.25;92.02;99792.13;5042135;28;20210;-80
2024/02/06 08:28:01;;;;;;;4.00;3.03;;;;;;;10.22;92.04;99797.41;5035284;28;20683;-80
2024/02/06 08:30:27;;;;;;;4.03;2.47;;;;;;;10.38;91.74;99794.41;5038242;28;20202;-81
2024/02/06 08:33:06;;;;;;;2.73;2.20;;;;;;;10.30;91.42;99802.47;5039852;28;20210;-82
2024/02/06 08:35:39;;;;;;;2.87;2.33;;;;;;;10.17;91.65;99799.31;5039496;28;20252;-81
2024/02/06 08:38:13;;;;;;;2.67;2.47;;;;;;;10.22;91.63;99801.78;5039641;28;20210;-80
2024/02/06 08:40:50;;;;;;;4.23;2.67;;;;;;;10.23;91.83;99804.38;5039078;28;20225;-80
2024/02/06 08:49:56;;;;;;;2.90;2.60;;;;;;;10.37;90.48;99819.66;4909376;28;20217;-81
2024/02/06 08:52:23;;;;;;;3.63;2.57;;;;;;;10.43;90.63;99832.53;5031752;28;20271;-77
2024/02/06 08:54:53;;;;;;;3.73;2.67;;;;;;;9.96;93.41;99812.94;5026888;28;20253;-77
2024/02/06 08:57:20;;;;;;;3.77;3.20;;;;;;;10.06;93.25;99770.06;5028430;28;20226;-77
2024/02/06 08:59:46;;;;;;;3.47;2.33;;;;;;;10.10;93.49;99761.25;5026728;28;20199;-77
2024/02/06 09:02:12;;;;;;;2.30;2.10;;;;;;;10.14;92.82;99758.50;5028287;28;20221;-78
2024/02/06 09:04:40;;;;;;;3.53;2.83;;;;;;;10.18;92.13;99771.47;5025859;28;21008;-78
2024/02/06 09:07:07;;;;;;;3.03;2.70;;;;;;;10.04;91.63;99771.88;5023928;28;20716;-77
2024/02/06 09:09:33;;;;;;;3.10;2.67;;;;;;;10.26;91.75;99766.91;5030209;28;20206;-77
2024/02/06 09:12:01;;;;;;;3.03;2.60;;;;;;;10.37;91.55;99769.25;5026571;28;20233;-76
2024/02/06 09:14:27;;;;;;;2.83;2.60;;;;;;;10.34;90.26;99773.63;5024570;28;20602;-76
2024/02/06 09:16:54;;;;;;;3.10;2.80;;;;;;;10.25;90.38;99809.53;5026052;28;20288;-77
2024/02/06 09:19:20;;;;;;;2.73;2.50;;;;;;;10.40;90.04;99792.63;5026689;28;20701;-75
2024/02/06 09:21:46;;;;;;;4.97;2.20;;;;;;;10.45;89.87;99807.25;5025421;28;20250;-76
2024/02/06 09:24:13;;;;;;;2.80;2.60;;;;;;;10.34;89.65;99814.53;5027384;28;20198;-77
2024/02/06 09:26:39;;;;;;;3.47;3.13;;;;;;;10.42;89.94;99815.16;5024936;28;20313;-77
2024/02/06 09:29:07;;;;;;;4.00;2.77;;;;;;;10.52;89.91;99810.53;5027232;28;20554;-76
2024/02/06 09:31:34;;;;;;;5.27;3.00;;;;;;;10.55;90.00;99805.22;5025195;28;20206;-76
2024/02/06 09:34:00;;;;;;;5.97;2.67;;;;;;;10.11;90.39;99794.28;5026659;28;20206;-77
2024/02/06 09:36:26;;;;;;;4.50;3.23;;;;;;;10.32;90.78;99777.19;5026378;28;20249;-77
2024/02/06 09:38:52;;;;;;;5.77;3.33;;;;;;;10.43;90.69;99798.63;5028933;28;20206;-76
2024/02/06 09:41:21;;;;;;;5.60;3.17;;;;;;;10.30;91.04;99800.69;5032619;28;20311;-77
2024/02/06 09:43:48;;;;;;;6.73;3.23;;;;;;;10.15;91.19;99790.69;5031919;28;20202;-78
2024/02/06 09:46:16;;;;;;;3.53;3.13;;;;;;;10.49;91.11;99802.81;5032710;28;20222;-77
2024/02/06 09:48:43;;;;;;;3.90;3.50;;;;;;;10.42;91.73;99762.97;5032534;28;20296;-77
2024/02/06 09:51:11;;;;;;;4.77;3.90;;;;;;;10.42;91.29;99776.00;5020885;28;20230;-77
2024/02/06 09:53:38;;;;;;;4.23;3.43;;;;;;;10.40;90.80;99775.22;5025308;28;20245;-77
2024/02/06 09:56:06;;;;;;;4.83;3.90;;;;;;;10.41;89.89;99789.13;5026892;28;20709;-78
2024/02/06 09:58:33;;;;;;;4.50;3.80;;;;;;;10.48;89.68;99791.50;5024248;28;20837;-76
2024/02/06 10:01:00;;;;;;;3.63;3.33;;;;;;;10.25;90.68;99786.91;5026788;28;20280;-76
2024/02/06 10:03:30;;;;;;;6.17;3.93;;;;;;;10.44;90.47;99774.22;5023704;28;20587;-77
2024/02/06 10:06:00;;;;;;;4.07;3.60;;;;;;;10.51;89.14;99808.84;5025159;28;20222;-77
2024/02/06 10:08:26;;;;;;;6.03;3.43;;;;;;;10.64;89.06;99810.16;5024491;28;20264;-78
2024/02/06 10:10:54;;;;;;;6.43;4.20;;;;;;;10.57;88.67;99818.25;5026680;28;20228;-76
2024/02/06 10:13:20;;;;;;;6.10;3.37;;;;;;;10.54;88.22;99840.03;5023256;28;20234;-76
2024/02/06 10:15:47;;;;;;;6.27;3.60;;;;;;;10.78;87.69;99838.47;5016472;28;20214;-76
2024/02/06 10:18:15;;;;;;;4.87;3.80;;;;;;;10.58;87.76;99859.94;5032194;28;20202;-77
2024/02/06 10:20:44;;;;;;;4.67;3.83;;;;;;;10.79;87.52;99839.34;5032057;28;20309;-77
2024/02/06 10:23:11;;;;;;;3.57;3.27;;;;;;;10.91;87.26;99847.66;5033786;28;20233;-79
2024/02/06 10:25:38;;;;;;;6.37;3.30;;;;;;;10.93;86.83;99869.34;5034130;28;20231;-78
2024/02/06 10:28:04;;;;;;;7.43;3.13;;;;;;;10.89;86.59;99872.97;5032569;28;20214;-78
2024/02/06 10:30:54;;;;;;;3.93;3.07;;;;;;;10.98;86.46;99879.69;5032320;28;20229;-80
2024/02/06 10:33:29;;;;;;;3.50;3.03;;;;;;;11.01;86.58;99879.59;5028344;28;20272;-79
2024/02/06 10:36:01;;;;;;;6.97;3.10;;;;;;;10.92;86.70;99875.50;5027191;28;20232;-80
2024/02/06 10:39:29;;;;;;;4.33;2.87;;;;;;;11.04;87.01;99869.06;5033285;28;20478;-78
2024/02/06 10:42:00;;;;;;;5.10;3.30;;;;;;;11.10;86.30;99865.41;5046378;28;20283;-78
2024/02/06 10:44:28;;;;;;;6.70;3.20;;;;;;;11.07;87.08;99857.66;5028743;28;20755;-78
2024/02/06 10:46:58;;;;;;;3.17;2.97;;;;;;;10.96;87.63;99851.88;5033321;28;20234;-79
2024/02/06 10:49:24;;;;;;;4.87;2.93;;;;;;;11.11;88.03;99822.69;5033829;28;20257;-81
2024/02/06 10:52:04;;;;;;;3.80;2.43;;;;;;;10.87;87.86;99804.25;5034586;28;20252;-76
2024/02/06 10:54:34;;;;;;;2.97;2.43;;;;;;;10.98;87.95;99800.47;5034658;28;20579;-80
2024/02/06 10:57:05;;;;;;;3.90;2.90;;;;;;;10.95;88.10;99804.03;5033695;28;20276;-77
2024/02/06 10:59:35;;;;;;;4.23;2.90;;;;;;;11.00;88.07;99806.50;5033106;28;20692;-77
2024/02/06 11:02:06;;;;;;;5.17;3.03;;;;;;;10.97;88.17;99778.72;5032066;28;20688;-77
2024/02/06 11:04:36;;;;;;;2.80;2.60;;;;;;;11.05;88.60;99781.09;5031723;28;20217;-78
2024/02/06 11:07:06;;;;;;;3.50;2.93;;;;;;;11.25;87.63;99786.53;5031714;28;20226;-77
2024/02/06 11:09:35;;;;;;;4.67;2.90;;;;;;;11.09;87.89;99806.22;5031324;28;20245;-77
2024/02/06 11:12:02;;;;;;;2.87;2.57;;;;;;;11.05;88.80;99770.66;5031520;28;20257;-77
2024/02/06 11:14:29;;;;;;;5.03;3.00;;;;;;;10.90;88.50;99769.38;5031128;28;20214;-76
2024/02/06 11:16:58;;;;;;;4.20;3.17;;;;;;;11.10;88.64;99743.50;5028933;28;20291;-75
2024/02/06 11:19:35;;;;;;;3.13;2.60;;;;;;;11.20;87.72;99753.63;5031622;28;20296;-76
2024/02/06 11:22:10;;;;;;;4.20;2.97;;;;;;;11.07;88.08;99759.25;5031434;28;20661;-77
2024/02/06 11:24:37;;;;;;;5.57;2.87;;;;;;;10.97;88.99;99747.41;5031440;28;20276;-77
2024/02/06 11:27:04;;;;;;;4.30;3.20;;;;;;;11.08;89.34;99726.16;5031399;28;20226;-76
2024/02/06 11:29:31;;;;;;;2.87;2.50;;;;;;;11.03;89.26;99730.69;5031208;28;20249;-75
2024/02/06 11:31:57;;;;;;;2.87;2.57;;;;;;;11.04;89.05;99730.63;5031092;28;20230;-76
2024/02/06 11:34:24;;;;;;;2.93;2.63;;;;;;;10.93;89.50;99720.53;5031338;28;20214;-78
2024/02/06 11:37:00;;;;;;;5.50;3.33;;;;;;;10.99;89.13;99729.06;5032615;28;20227;-78
2024/02/06 11:39:30;;;;;;;5.40;3.10;;;;;;;11.11;89.65;99713.00;5035279;28;20288;-80
2024/02/06 11:42:01;;;;;;;5.93;3.00;;;;;;;10.95;88.98;99730.91;5039931;28;20252;-78
2024/02/06 11:44:29;;;;;;;3.87;2.53;;;;;;;11.11;88.47;99728.66;5036617;28;20207;-80
2024/02/06 11:46:59;;;;;;;5.60;3.53;;;;;;;11.30;87.93;99758.50;5034929;28;20218;-79